createdAt,value
2022-08-24T00:00:25.487Z,23.59
2022-08-24T00:02:59.083Z,23.57
2022-08-24T00:05:46.405Z,23.43
2022-08-24T00:08:15.602Z,23.47
2022-08-24T00:10:45.854Z,23.44
2022-08-24T00:13:21.377Z,23.49
2022-08-24T00:15:53.456Z,23.43
2022-08-24T00:18:24.282Z,23.33
2022-08-24T00:20:56.949Z,23.30
2022-08-24T00:23:26.653Z,23.36
2022-08-24T00:25:57.527Z,23.38
2022-08-24T00:28:27.818Z,23.29
2022-08-24T00:30:57.217Z,23.31
2022-08-24T00:33:27.308Z,23.33
2022-08-24T00:35:57.147Z,23.24
2022-08-24T00:38:27.768Z,23.30
2022-08-24T00:40:59.133Z,23.34
2022-08-24T00:43:27.935Z,23.23
2022-08-24T00:46:15.851Z,23.21
2022-08-24T00:48:50.419Z,23.15
2022-08-24T00:51:28.557Z,23.15
2022-08-24T00:54:04.576Z,23.09
2022-08-24T00:56:41.981Z,23.12
2022-08-24T00:59:22.251Z,23.19
2022-08-24T01:01:56.148Z,23.23
2022-08-24T01:04:46.905Z,23.18
2022-08-24T01:07:17.223Z,23.23
2022-08-24T01:09:45.709Z,23.14
2022-08-24T01:12:14.278Z,23.07
2022-08-24T01:14:42.877Z,23.01
2022-08-24T01:17:29.571Z,22.98
2022-08-24T01:20:07.541Z,22.97
2022-08-24T01:23:00.246Z,23.00
2022-08-24T01:25:37.005Z,23.00
2022-08-24T01:28:15.953Z,23.04
2022-08-24T01:30:46.149Z,23.06
2022-08-24T01:33:30.413Z,23.02
2022-08-24T01:36:04.517Z,22.92
2022-08-24T01:38:35.001Z,23.00
2022-08-24T01:41:08.352Z,23.00
2022-08-24T01:43:41.835Z,23.00
2022-08-24T01:46:12.689Z,22.87
2022-08-24T01:49:02.857Z,22.82
2022-08-24T01:51:35.423Z,22.87
2022-08-24T01:54:06.978Z,22.90
2022-08-24T02:02:33.906Z,23.02
2022-08-24T02:05:03.868Z,23.00
2022-08-24T02:07:34.289Z,23.03
2022-08-24T02:10:03.702Z,22.98
2022-08-24T02:13:25.539Z,22.72
2022-08-24T02:15:55.789Z,22.76
2022-08-24T02:18:24.967Z,22.78
2022-08-24T02:20:55.206Z,22.78
2022-08-24T02:23:27.091Z,22.75
2022-08-24T02:25:56.900Z,22.73
2022-08-24T02:28:25.944Z,22.65
2022-08-24T02:30:56.104Z,22.62
2022-08-24T02:33:25.681Z,22.70
2022-08-24T02:35:55.869Z,22.67
2022-08-24T02:38:24.962Z,22.56
2022-08-24T02:40:55.391Z,22.60
2022-08-24T02:43:26.862Z,22.62
2022-08-24T02:45:57.128Z,22.61
2022-08-24T02:48:25.994Z,22.58
2022-08-24T02:50:55.250Z,22.61
2022-08-24T02:56:27.124Z,22.54
2022-08-24T02:58:57.361Z,22.52
2022-08-24T03:04:30.163Z,22.52
2022-08-24T03:06:59.244Z,22.49
2022-08-24T03:09:28.924Z,22.43
2022-08-24T03:12:01.539Z,22.41
2022-08-24T03:14:30.498Z,22.40
2022-08-24T03:17:01.588Z,22.35
2022-08-24T03:19:30.553Z,22.37
2022-08-24T03:22:02.302Z,22.38
2022-08-24T03:24:31.306Z,22.39
2022-08-24T03:27:00.805Z,22.38
2022-08-24T03:29:34.626Z,22.35
2022-08-24T03:32:06.401Z,22.31
2022-08-24T03:43:32.143Z,22.33
2022-08-24T03:52:41.797Z,22.23
2022-08-24T04:04:11.619Z,22.11
2022-08-24T04:09:44.083Z,22.11
2022-08-24T04:12:12.990Z,22.11
2022-08-24T04:23:47.646Z,22.14
2022-08-24T04:26:32.469Z,22.11
2022-08-24T04:29:10.881Z,22.09
2022-08-24T04:31:40.952Z,22.14
2022-08-24T04:34:11.028Z,22.09
2022-08-24T04:36:41.562Z,22.06
2022-08-24T04:39:12.054Z,22.07
2022-08-24T04:41:43.186Z,22.00
2022-08-24T04:44:13.926Z,22.02
2022-08-24T04:46:44.131Z,22.03
2022-08-24T04:49:13.213Z,22.08
2022-08-24T04:51:42.104Z,22.04
2022-08-24T04:54:11.015Z,22.06
2022-08-24T04:56:39.285Z,22.08
2022-08-24T04:59:09.199Z,22.06
2022-08-24T05:01:44.507Z,22.06
2022-08-24T05:04:16.112Z,22.12
2022-08-24T05:06:44.851Z,22.12
2022-08-24T05:09:13.758Z,22.15
2022-08-24T05:11:49.711Z,22.17
2022-08-24T05:14:20.712Z,22.14
2022-08-24T05:16:53.127Z,22.32
2022-08-24T05:19:23.354Z,22.36
2022-08-24T05:21:52.864Z,22.36
2022-08-24T05:24:21.439Z,22.34
2022-08-24T05:26:52.379Z,22.35
2022-08-24T05:29:23.701Z,22.34
2022-08-24T05:31:54.511Z,22.43
2022-08-24T05:34:25.142Z,22.48
2022-08-24T05:36:53.917Z,22.55
2022-08-24T05:39:23.422Z,22.60
2022-08-24T05:41:52.069Z,22.57
2022-08-24T05:44:22.240Z,22.72
2022-08-24T05:46:52.758Z,22.82
2022-08-24T05:49:22.629Z,22.82
2022-08-24T05:51:52.386Z,22.83
2022-08-24T05:54:26.912Z,22.82
2022-08-24T05:56:57.821Z,22.90
2022-08-24T05:59:32.209Z,23.09
2022-08-24T06:02:18.370Z,23.24
2022-08-24T06:04:48.077Z,23.38
2022-08-24T06:07:19.386Z,23.59
2022-08-24T06:19:15.489Z,23.40
2022-08-24T06:21:46.800Z,24.16
2022-08-24T06:24:18.613Z,24.30
2022-08-24T06:27:05.517Z,24.51
2022-08-24T06:29:36.517Z,24.75
2022-08-24T06:32:07.217Z,24.85
2022-08-24T06:34:44.579Z,24.96
2022-08-24T06:37:29.375Z,25.08
2022-08-24T06:45:26.984Z,25.48
2022-08-24T06:47:57.295Z,25.66
2022-08-24T06:50:27.728Z,25.65
2022-08-24T06:52:58.194Z,25.80
2022-08-24T06:55:29.738Z,25.68
2022-08-24T06:57:59.698Z,25.95
2022-08-24T07:00:28.936Z,25.90
2022-08-24T07:02:57.870Z,26.20
2022-08-24T07:05:29.013Z,26.40
2022-08-24T07:10:42.615Z,26.52
2022-08-24T07:13:12.524Z,26.67
2022-08-24T07:15:44.945Z,26.80
2022-08-24T07:18:16.955Z,26.90
2022-08-24T07:21:19.850Z,26.73
2022-08-24T07:23:49.324Z,26.81
2022-08-24T07:29:13.606Z,27.33
2022-08-24T07:31:51.942Z,27.32
2022-08-24T07:34:34.413Z,27.54
2022-08-24T07:39:51.134Z,27.53
2022-08-24T07:42:27.128Z,27.85
2022-08-24T07:45:00.863Z,27.92
2022-08-24T07:47:43.237Z,27.81
2022-08-24T07:53:20.866Z,28.28
2022-08-24T07:55:57.838Z,28.18
2022-08-24T07:58:27.778Z,28.15
2022-08-24T08:00:58.071Z,28.23
2022-08-24T08:03:30.147Z,28.41
2022-08-24T08:05:59.312Z,28.64
2022-08-24T08:08:29.869Z,28.60
2022-08-24T08:10:59.249Z,28.84
2022-08-24T08:13:29.620Z,28.79
2022-08-24T08:16:18.031Z,28.88
2022-08-24T08:18:52.198Z,29.05
2022-08-24T08:21:48.508Z,28.89
2022-08-24T08:24:23.965Z,29.17
2022-08-24T08:32:37.947Z,29.06
2022-08-24T08:35:10.190Z,29.10
2022-08-24T08:37:40.212Z,29.41
2022-08-24T08:40:28.513Z,29.34
2022-08-24T08:43:11.554Z,29.66
2022-08-24T08:46:08.845Z,29.92
2022-08-24T08:49:31.904Z,30.04
2022-08-24T08:52:56.514Z,29.98
2022-08-24T08:59:22.249Z,29.93
2022-08-24T09:05:16.460Z,30.32
2022-08-24T09:11:18.271Z,30.03
2022-08-24T09:14:21.491Z,30.71
2022-08-24T09:21:32.126Z,30.69
2022-08-24T09:24:18.428Z,30.98
2022-08-24T09:30:07.442Z,31.50
2022-08-24T09:33:14.698Z,30.96
2022-08-24T09:36:16.920Z,30.69
2022-08-24T09:39:06.165Z,31.05
2022-08-24T09:45:40.623Z,31.62
2022-08-24T09:48:36.634Z,31.74
2022-08-24T09:51:46.514Z,31.84
2022-08-24T09:55:15.383Z,31.71
2022-08-24T09:58:13.603Z,31.76
2022-08-24T10:00:52.021Z,31.93
2022-08-24T10:13:50.052Z,32.56
2022-08-24T10:16:40.224Z,32.44
2022-08-24T10:20:01.939Z,32.67
2022-08-24T10:22:54.398Z,32.92
2022-08-24T10:29:23.308Z,32.55
2022-08-24T10:42:57.071Z,33.25
2022-08-24T10:46:27.303Z,33.33
2022-08-24T10:49:55.466Z,33.69
2022-08-24T10:53:25.480Z,33.84
2022-08-24T10:56:13.904Z,33.79
2022-08-24T10:59:04.626Z,33.57
2022-08-24T11:02:09.506Z,33.52
2022-08-24T11:04:43.547Z,33.85
2022-08-24T11:07:23.317Z,33.35
2022-08-24T11:09:56.929Z,33.44
2022-08-24T11:12:31.032Z,33.77
2022-08-24T11:15:04.084Z,33.87
2022-08-24T11:17:36.005Z,34.14
2022-08-24T11:20:26.031Z,34.44
2022-08-24T11:23:08.737Z,34.47
2022-08-24T11:25:43.503Z,34.94
2022-08-24T11:28:24.588Z,34.47
2022-08-24T11:30:53.852Z,34.34
2022-08-24T11:33:32.414Z,34.37
2022-08-24T11:36:04.761Z,34.62
2022-08-24T11:38:55.989Z,35.07
2022-08-24T11:51:36.266Z,35.01
2022-08-24T11:54:19.648Z,35.29
2022-08-24T11:57:09.410Z,35.42
2022-08-24T11:59:51.066Z,35.24
2022-08-24T12:02:34.153Z,35.61
2022-08-24T12:05:10.203Z,35.40
2022-08-24T12:08:02.083Z,36.37
2022-08-24T12:10:55.947Z,36.40
2022-08-24T12:13:34.808Z,36.47
2022-08-24T12:16:14.575Z,36.37
2022-08-24T12:18:55.734Z,36.74
2022-08-24T12:21:39.790Z,37.28
2022-08-24T12:24:18.664Z,36.68
2022-08-24T12:26:53.133Z,37.94
2022-08-24T12:29:39.453Z,37.52
2022-08-24T12:32:16.994Z,37.94
2022-08-24T12:35:00.950Z,37.02
2022-08-24T12:37:36.918Z,37.87
2022-08-24T12:40:25.618Z,38.46
2022-08-24T12:46:07.025Z,38.09
2022-08-24T12:48:47.417Z,38.87
2022-08-24T12:54:38.746Z,38.53
2022-08-24T12:57:26.699Z,38.32
2022-08-24T13:00:02.991Z,38.58
2022-08-24T13:02:47.921Z,38.76
2022-08-24T13:05:21.255Z,38.95
2022-08-24T13:08:10.134Z,38.69
2022-08-24T13:10:44.999Z,39.26
2022-08-24T13:13:33.373Z,39.00
2022-08-24T13:16:25.946Z,37.71
2022-08-24T13:19:34.411Z,37.86
2022-08-24T13:29:14.408Z,36.95
2022-08-24T13:31:54.883Z,37.16
2022-08-24T13:34:52.945Z,36.67
2022-08-24T13:37:26.298Z,36.40
2022-08-24T13:40:15.124Z,37.31
2022-08-24T13:43:13.630Z,37.59
2022-08-24T13:45:52.591Z,38.98
2022-08-24T13:48:55.688Z,39.78
2022-08-24T13:51:45.840Z,39.06
2022-08-24T13:54:28.607Z,39.99
2022-08-24T14:01:11.424Z,39.86
2022-08-24T14:04:24.888Z,40.59
2022-08-24T14:07:01.662Z,40.64
2022-08-24T14:09:47.728Z,41.26
2022-08-24T14:12:43.245Z,41.48
2022-08-24T14:15:27.531Z,41.84
2022-08-24T14:18:11.762Z,41.38
2022-08-24T14:24:46.285Z,41.67
2022-08-24T14:34:23.863Z,38.33
2022-08-24T14:37:06.749Z,38.67
2022-08-24T14:40:17.258Z,37.81
2022-08-24T14:42:57.471Z,37.53
2022-08-24T15:07:23.037Z,39.31
2022-08-24T15:09:56.140Z,39.46
2022-08-24T15:16:10.251Z,39.09
2022-08-24T15:21:56.721Z,40.05
2022-08-24T15:24:48.277Z,39.43
2022-08-24T15:27:43.085Z,39.93
2022-08-24T15:30:26.036Z,40.19
2022-08-24T15:36:31.014Z,40.89
2022-08-24T15:52:28.244Z,39.72
2022-08-24T16:12:52.245Z,37.83
2022-08-24T16:32:30.205Z,35.39
2022-08-24T16:35:20.922Z,35.19
2022-08-24T16:47:05.237Z,33.84
2022-08-24T16:49:40.933Z,34.12
2022-08-24T16:52:27.386Z,33.88
2022-08-24T16:54:58.282Z,33.66
2022-08-24T17:00:49.652Z,33.53
2022-08-24T17:06:59.920Z,33.02
2022-08-24T17:09:32.490Z,32.80
2022-08-24T17:14:57.594Z,32.37
2022-08-24T17:17:32.323Z,32.28
2022-08-24T17:20:03.644Z,32.33
2022-08-24T17:22:40.521Z,31.68
2022-08-24T17:28:21.569Z,31.25
2022-08-24T17:30:53.528Z,31.40
2022-08-24T17:33:40.602Z,30.61
2022-08-24T17:42:46.958Z,30.59
2022-08-24T17:45:10.612Z,30.52
2022-08-24T18:03:54.758Z,29.80
2022-08-24T18:07:14.816Z,29.21
2022-08-24T18:13:11.300Z,29.36
2022-08-24T18:15:53.584Z,29.28
2022-08-24T18:18:22.083Z,29.17
2022-08-24T18:20:50.984Z,29.02
2022-08-24T18:23:24.596Z,29.00
2022-08-24T18:28:38.043Z,28.65
2022-08-24T18:34:09.942Z,28.55
2022-08-24T18:36:47.714Z,28.52
2022-08-24T18:39:21.274Z,28.55
2022-08-24T18:47:44.915Z,28.22
2022-08-24T18:50:23.593Z,28.07
2022-08-24T18:52:56.305Z,28.11
2022-08-24T18:55:27.462Z,28.15
2022-08-24T18:57:57.304Z,27.90
2022-08-24T19:00:27.203Z,27.78
2022-08-24T19:03:13.683Z,27.87
2022-08-24T19:05:45.372Z,27.59
2022-08-24T19:14:58.624Z,27.60
2022-08-24T19:23:48.437Z,27.82
2022-08-24T19:32:50.558Z,27.35
2022-08-24T19:44:23.563Z,27.65
2022-08-24T19:50:07.856Z,27.49
2022-08-24T19:52:39.923Z,27.43
2022-08-24T20:04:24.889Z,27.45
2022-08-24T20:06:54.931Z,27.52
2022-08-24T20:12:20.027Z,27.28
2022-08-24T20:17:46.049Z,27.42
2022-08-24T20:20:20.002Z,27.24
2022-08-24T20:22:50.706Z,27.35
2022-08-24T20:25:20.441Z,27.27
2022-08-24T20:27:58.099Z,27.23
2022-08-24T20:30:41.821Z,27.18
2022-08-24T20:33:16.960Z,27.19
2022-08-24T20:35:46.944Z,27.44
2022-08-24T20:38:23.826Z,27.33
2022-08-24T20:40:53.356Z,27.18
2022-08-24T20:43:23.529Z,27.03
2022-08-24T20:48:40.276Z,27.16
2022-08-24T20:51:12.138Z,27.22
2022-08-24T20:53:42.230Z,26.90
2022-08-24T20:56:20.878Z,27.10
2022-08-24T20:58:57.291Z,26.93
2022-08-24T21:01:25.933Z,27.01
2022-08-24T21:03:54.714Z,27.06
2022-08-24T21:06:23.890Z,27.13
2022-08-24T21:08:56.521Z,27.04
2022-08-24T21:11:25.312Z,26.90
2022-08-24T21:13:55.539Z,27.08
2022-08-24T21:16:26.596Z,27.05
2022-08-24T21:18:56.258Z,27.06
2022-08-24T21:21:24.772Z,27.07
2022-08-24T21:23:58.631Z,27.10
2022-08-24T21:26:31.605Z,27.11
2022-08-24T21:29:00.757Z,27.03
2022-08-24T21:31:31.340Z,26.98
2022-08-24T21:34:17.304Z,26.99
2022-08-24T21:36:52.669Z,27.02
2022-08-24T21:39:25.650Z,26.97
2022-08-24T21:41:54.741Z,27.04
2022-08-24T21:44:23.378Z,26.92
2022-08-24T21:46:55.687Z,26.78
2022-08-24T21:49:26.563Z,26.76
2022-08-24T21:51:57.729Z,26.75
2022-08-24T21:54:30.323Z,26.59
2022-08-24T21:56:59.702Z,26.68
2022-08-24T21:59:29.716Z,26.69
2022-08-24T22:01:58.933Z,26.68
2022-08-24T22:04:27.812Z,26.69
2022-08-24T22:06:57.743Z,26.66
2022-08-24T22:09:27.130Z,26.68
2022-08-24T22:12:00.585Z,26.64
2022-08-24T22:14:29.675Z,26.58
2022-08-24T22:17:02.377Z,26.53
2022-08-24T22:19:33.999Z,26.49
2022-08-24T22:22:03.488Z,26.42
2022-08-24T22:24:33.639Z,26.41
2022-08-24T22:27:05.259Z,26.39
2022-08-24T22:29:36.629Z,26.40
2022-08-24T22:32:05.723Z,26.35
2022-08-24T22:34:36.547Z,26.27
2022-08-24T22:37:06.342Z,26.29
2022-08-24T22:39:35.230Z,26.26
2022-08-24T22:42:06.169Z,26.28
2022-08-24T22:44:35.582Z,26.21
2022-08-24T22:47:13.392Z,26.22
2022-08-24T22:49:46.666Z,26.27
2022-08-24T22:52:16.651Z,26.24
2022-08-24T22:54:45.475Z,26.22
2022-08-24T22:57:19.773Z,26.19
2022-08-24T22:59:49.518Z,26.20
2022-08-24T23:02:19.839Z,25.76
2022-08-24T23:05:07.031Z,25.95
2022-08-24T23:07:36.951Z,25.96
2022-08-24T23:10:10.541Z,25.93
2022-08-24T23:12:40.803Z,25.97
2022-08-24T23:15:12.960Z,25.90
2022-08-24T23:17:43.051Z,25.92
2022-08-24T23:20:12.484Z,25.86
2022-08-24T23:22:43.662Z,25.83
2022-08-24T23:25:14.605Z,25.90
2022-08-24T23:27:48.062Z,25.78
2022-08-24T23:30:22.051Z,25.78
2022-08-24T23:32:51.306Z,25.76
2022-08-24T23:35:19.934Z,25.83
2022-08-24T23:37:48.602Z,25.67
2022-08-24T23:40:18.973Z,25.73
2022-08-24T23:42:55.260Z,25.69
2022-08-24T23:45:28.113Z,25.65
2022-08-24T23:47:58.939Z,25.58
2022-08-24T23:50:28.691Z,25.31
2022-08-24T23:52:59.893Z,25.36
2022-08-24T23:55:30.185Z,25.46
2022-08-24T23:58:00.757Z,25.56
